createdAt,value
2022-08-23T00:00:48.394Z,55.21
2022-08-23T00:01:48.429Z,54.91
2022-08-23T00:02:48.556Z,55.01
2022-08-23T00:03:48.500Z,55.11
2022-08-23T00:05:00.541Z,55.11
2022-08-23T00:05:48.573Z,55.11
2022-08-23T00:06:48.909Z,55.11
2022-08-23T00:07:48.643Z,55.11
2022-08-23T00:08:48.885Z,55.01
2022-08-23T00:09:48.715Z,55.01
2022-08-23T00:10:48.756Z,55.01
2022-08-23T00:11:48.803Z,54.91
2022-08-23T00:12:49.087Z,54.91
2022-08-23T00:13:48.859Z,55.11
2022-08-23T00:14:48.896Z,54.91
2022-08-23T00:15:48.930Z,54.82
2022-08-23T00:16:49.070Z,54.91
2022-08-23T00:17:49.017Z,54.91
2022-08-23T00:18:49.580Z,54.82
2022-08-23T00:19:49.075Z,55.01
2022-08-23T00:20:49.108Z,55.01
2022-08-23T00:21:49.143Z,54.72
2022-08-23T00:22:49.187Z,54.91
2022-08-23T00:23:49.218Z,55.01
2022-08-23T00:24:49.508Z,54.72
2022-08-23T00:25:49.290Z,54.72
2022-08-23T00:26:49.325Z,54.72
2022-08-23T00:27:49.358Z,54.91
2022-08-23T00:28:49.396Z,54.91
2022-08-23T00:29:49.431Z,55.01
2022-08-23T00:30:49.471Z,55.11
2022-08-23T00:31:49.809Z,54.82
2022-08-23T00:32:49.540Z,55.11
2022-08-23T00:33:49.584Z,55.01
2022-08-23T00:34:49.611Z,55.21
2022-08-23T00:35:49.649Z,54.91
2022-08-23T00:36:49.685Z,55.11
2022-08-23T00:38:05.930Z,55.11
2022-08-23T00:38:49.758Z,54.91
2022-08-23T00:39:49.840Z,54.91
2022-08-23T00:40:49.832Z,55.01
2022-08-23T00:41:49.864Z,55.11
2022-08-23T00:42:49.899Z,55.11
2022-08-23T00:43:49.933Z,55.01
2022-08-23T00:44:50.224Z,55.01
2022-08-23T00:45:50.020Z,55.01
2022-08-23T00:46:50.043Z,55.01
2022-08-23T00:47:50.081Z,55.11
2022-08-23T00:48:50.114Z,55.11
2022-08-23T00:49:50.160Z,54.91
2022-08-23T00:50:50.192Z,54.72
2022-08-23T00:51:52.936Z,54.82
2022-08-23T00:52:50.257Z,55.01
2022-08-23T00:53:50.297Z,54.91
2022-08-23T00:54:50.331Z,55.01
2022-08-23T00:55:50.363Z,54.91
2022-08-23T00:56:50.401Z,55.21
2022-08-23T00:57:50.436Z,55.21
2022-08-23T00:58:50.776Z,55.11
2022-08-23T00:59:50.509Z,54.91
2022-08-23T01:00:50.546Z,55.01
2022-08-23T01:01:50.626Z,55.01
2022-08-23T01:02:50.631Z,55.01
2022-08-23T01:04:03.062Z,55.01
2022-08-23T01:04:50.688Z,55.01
2022-08-23T01:05:51.027Z,54.62
2022-08-23T01:06:50.761Z,54.72
2022-08-23T01:07:50.798Z,54.52
2022-08-23T01:08:50.830Z,55.21
2022-08-23T01:09:50.888Z,55.21
2022-08-23T01:10:50.904Z,54.52
2022-08-23T01:11:50.936Z,55.01
2022-08-23T01:12:51.224Z,54.43
2022-08-23T01:13:51.015Z,55.21
2022-08-23T01:14:51.050Z,54.52
2022-08-23T01:15:51.080Z,54.43
2022-08-23T01:16:51.124Z,54.52
2022-08-23T01:17:51.155Z,54.72
2022-08-23T01:18:51.490Z,54.62
2022-08-23T01:19:51.222Z,55.01
2022-08-23T01:20:51.262Z,55.01
2022-08-23T01:21:51.293Z,54.91
2022-08-23T01:22:51.334Z,55.21
2022-08-23T01:23:51.370Z,54.62
2022-08-23T01:25:07.690Z,55.21
2022-08-23T01:25:51.436Z,55.11
2022-08-23T01:26:51.473Z,54.62
2022-08-23T01:27:51.508Z,54.43
2022-08-23T01:28:51.552Z,54.33
2022-08-23T01:29:51.587Z,54.72
2022-08-23T01:30:51.943Z,54.72
2022-08-23T01:31:51.665Z,54.62
2022-08-23T01:32:51.688Z,54.52
2022-08-23T01:33:51.724Z,54.52
2022-08-23T01:34:51.907Z,54.33
2022-08-23T01:35:51.798Z,54.62
2022-08-23T01:36:51.836Z,54.62
2022-08-23T01:37:52.115Z,54.43
2022-08-23T01:38:51.903Z,54.43
2022-08-23T01:39:51.990Z,54.62
2022-08-23T01:40:51.973Z,54.43
2022-08-23T01:41:52.006Z,54.62
2022-08-23T01:42:52.047Z,54.23
2022-08-23T01:43:52.103Z,54.52
2022-08-23T01:44:52.369Z,54.52
2022-08-23T01:45:52.151Z,54.52
2022-08-23T01:46:53.089Z,54.62
2022-08-23T01:47:52.228Z,54.43
2022-08-23T01:48:52.333Z,54.52
2022-08-23T01:49:52.292Z,54.33
2022-08-23T01:50:52.387Z,54.43
2022-08-23T01:51:52.666Z,54.43
2022-08-23T01:52:52.403Z,54.52
2022-08-23T01:53:52.440Z,54.52
2022-08-23T01:54:52.476Z,54.33
2022-08-23T01:55:52.507Z,54.62
2022-08-23T01:56:52.548Z,54.43
2022-08-23T01:57:52.581Z,54.43
2022-08-23T01:58:52.881Z,54.52
2022-08-23T01:59:52.652Z,54.33
2022-08-23T02:00:52.690Z,54.60
2022-08-23T02:01:52.812Z,54.52
2022-08-23T02:02:52.761Z,54.43
2022-08-23T02:03:58.902Z,54.52
2022-08-23T02:04:52.832Z,54.33
2022-08-23T02:05:53.118Z,54.62
2022-08-23T02:06:52.903Z,54.62
2022-08-23T02:07:52.941Z,54.62
2022-08-23T02:08:52.972Z,54.52
2022-08-23T02:09:53.005Z,54.62
2022-08-23T02:10:53.044Z,54.50
2022-08-23T02:11:53.082Z,54.52
2022-08-23T02:12:53.367Z,54.33
2022-08-23T02:13:53.159Z,54.33
2022-08-23T02:14:53.196Z,54.33
2022-08-23T02:15:53.219Z,54.52
2022-08-23T02:16:58.108Z,54.52
2022-08-23T02:17:53.298Z,54.62
2022-08-23T02:18:53.329Z,54.72
2022-08-23T02:19:53.614Z,54.82
2022-08-23T02:20:53.454Z,54.62
2022-08-23T02:21:53.434Z,54.33
2022-08-23T02:22:53.474Z,54.40
2022-08-23T02:23:53.505Z,54.43
2022-08-23T02:24:53.542Z,54.52
2022-08-23T02:25:53.576Z,54.43
2022-08-23T02:26:56.630Z,54.43
2022-08-23T02:27:53.650Z,54.62
2022-08-23T02:28:53.696Z,54.62
2022-08-23T02:29:53.732Z,54.62
2022-08-23T02:30:53.772Z,54.79
2022-08-23T02:31:53.808Z,54.13
2022-08-23T02:32:53.841Z,54.03
2022-08-23T02:35:05.813Z,54.13
2022-08-23T02:35:54.486Z,54.33
2022-08-23T02:36:53.973Z,54.52
2022-08-23T02:37:54.008Z,54.23
2022-08-23T02:38:54.044Z,53.75
2022-08-23T02:39:54.165Z,53.85
2022-08-23T02:41:00.918Z,53.45
2022-08-23T02:41:54.450Z,53.36
2022-08-23T02:42:54.194Z,53.42
2022-08-23T02:43:54.234Z,53.36
2022-08-23T02:44:54.257Z,53.52
2022-08-23T02:45:54.288Z,53.52
2022-08-23T02:46:54.320Z,53.52
2022-08-23T02:47:54.359Z,53.33
2022-08-23T02:48:54.699Z,53.52
2022-08-23T02:49:54.439Z,53.52
2022-08-23T02:50:54.475Z,53.62
2022-08-23T02:51:54.505Z,53.62
2022-08-23T02:52:54.539Z,53.33
2022-08-23T02:53:54.577Z,53.42
2022-08-23T02:54:58.352Z,53.52
2022-08-23T02:55:54.948Z,53.52
2022-08-23T02:56:54.683Z,53.62
2022-08-23T02:57:54.720Z,53.52
2022-08-23T02:58:55.057Z,53.52
2022-08-23T02:59:54.789Z,53.42
2022-08-23T03:00:54.826Z,53.42
2022-08-23T03:01:54.894Z,53.33
2022-08-23T03:02:55.148Z,53.33
2022-08-23T03:03:54.931Z,53.42
2022-08-23T03:04:54.963Z,53.42
2022-08-23T03:05:55.008Z,53.14
2022-08-23T03:06:55.033Z,53.42
2022-08-23T03:07:55.088Z,53.42
2022-08-23T03:08:55.105Z,53.62
2022-08-23T03:09:55.445Z,53.33
2022-08-23T03:10:55.184Z,53.42
2022-08-23T03:11:55.214Z,53.62
2022-08-23T03:12:55.254Z,53.42
2022-08-23T03:13:55.285Z,53.42
2022-08-23T03:14:55.319Z,53.72
2022-08-23T03:15:55.357Z,53.23
2022-08-23T03:16:58.282Z,53.42
2022-08-23T03:17:55.438Z,53.42
2022-08-23T03:18:55.458Z,53.72
2022-08-23T03:19:55.497Z,53.72
2022-08-23T03:20:55.533Z,53.62
2022-08-23T03:21:55.580Z,53.81
2022-08-23T03:22:55.619Z,53.62
2022-08-23T03:23:55.943Z,53.52
2022-08-23T03:24:55.689Z,53.81
2022-08-23T03:25:55.714Z,53.81
2022-08-23T03:26:55.759Z,53.72
2022-08-23T03:27:55.799Z,53.62
2022-08-23T03:28:55.815Z,53.62
2022-08-23T03:29:56.149Z,53.72
2022-08-23T03:30:55.884Z,53.79
2022-08-23T03:31:55.921Z,53.81
2022-08-23T03:32:55.952Z,53.81
2022-08-23T03:33:55.989Z,53.62
2022-08-23T03:34:56.028Z,53.62
2022-08-23T03:35:56.365Z,53.69
2022-08-23T03:36:56.097Z,53.62
2022-08-23T03:37:56.173Z,53.72
2022-08-23T03:38:56.182Z,53.81
2022-08-23T03:39:56.249Z,53.79
2022-08-23T03:40:56.237Z,53.69
2022-08-23T03:41:56.523Z,53.69
2022-08-23T03:42:56.310Z,53.79
2022-08-23T03:43:56.343Z,53.81
2022-08-23T03:44:56.827Z,53.79
2022-08-23T03:45:56.415Z,53.69
2022-08-23T03:46:56.448Z,53.79
2022-08-23T03:47:56.492Z,53.69
2022-08-23T03:48:56.769Z,53.79
2022-08-23T03:49:56.593Z,53.79
2022-08-23T03:50:56.589Z,53.69
2022-08-23T03:51:56.624Z,53.89
2022-08-23T03:52:56.659Z,53.69
2022-08-23T03:53:56.699Z,53.89
2022-08-23T03:54:56.733Z,53.79
2022-08-23T03:55:57.020Z,53.79
2022-08-23T03:56:56.801Z,53.79
2022-08-23T03:57:56.891Z,53.79
2022-08-23T03:58:56.893Z,53.89
2022-08-23T03:59:56.918Z,53.69
2022-08-23T04:00:56.941Z,53.69
2022-08-23T04:01:57.047Z,53.69
2022-08-23T04:02:57.313Z,53.69
2022-08-23T04:03:57.048Z,53.79
2022-08-23T04:04:57.081Z,53.69
2022-08-23T04:05:57.117Z,53.79
2022-08-23T04:06:57.153Z,53.69
2022-08-23T04:07:57.274Z,53.79
2022-08-23T04:08:57.222Z,53.89
2022-08-23T04:09:57.513Z,53.69
2022-08-23T04:10:57.294Z,53.69
2022-08-23T04:11:57.330Z,53.69
2022-08-23T04:12:57.364Z,53.69
2022-08-23T04:13:57.401Z,53.79
2022-08-23T04:14:57.436Z,53.79
2022-08-23T04:15:57.473Z,53.99
2022-08-23T04:16:57.805Z,53.79
2022-08-23T04:17:57.615Z,53.79
2022-08-23T04:18:57.574Z,53.79
2022-08-23T04:19:57.617Z,53.69
2022-08-23T04:20:57.644Z,53.79
2022-08-23T04:21:57.683Z,53.69
2022-08-23T04:22:57.735Z,53.79
2022-08-23T04:23:58.054Z,53.69
2022-08-23T04:24:57.785Z,53.89
2022-08-23T04:25:57.823Z,53.89
2022-08-23T04:26:57.858Z,53.79
2022-08-23T04:27:57.972Z,53.79
2022-08-23T04:28:57.933Z,53.89
2022-08-23T04:29:57.962Z,53.79
2022-08-23T04:30:58.297Z,53.79
2022-08-23T04:31:58.037Z,53.89
2022-08-23T04:32:58.073Z,53.69
2022-08-23T04:33:58.103Z,53.69
2022-08-23T04:34:58.154Z,53.79
2022-08-23T04:35:58.186Z,53.89
2022-08-23T04:36:58.206Z,53.69
2022-08-23T04:37:58.658Z,53.69
2022-08-23T04:38:58.279Z,53.69
2022-08-23T04:39:58.367Z,53.69
2022-08-23T04:40:58.348Z,53.89
2022-08-23T04:41:58.385Z,53.79
2022-08-23T04:42:58.427Z,53.79
2022-08-23T04:43:58.458Z,53.69
2022-08-23T04:44:58.795Z,53.69
2022-08-23T04:45:58.526Z,53.79
2022-08-23T04:46:58.561Z,53.89
2022-08-23T04:47:58.638Z,53.69
2022-08-23T04:48:58.635Z,53.89
2022-08-23T04:49:58.667Z,53.89
2022-08-23T04:50:58.713Z,53.89
2022-08-23T04:51:59.043Z,53.79
2022-08-23T04:52:58.771Z,53.79
2022-08-23T04:53:58.803Z,53.89
2022-08-23T04:54:58.839Z,53.69
2022-08-23T04:55:58.878Z,53.69
2022-08-23T04:56:58.912Z,53.89
2022-08-23T04:57:58.944Z,53.79
2022-08-23T04:58:59.282Z,53.69
2022-08-23T04:59:59.024Z,53.89
2022-08-23T05:00:59.067Z,53.79
2022-08-23T05:01:59.117Z,53.89
2022-08-23T05:02:59.128Z,53.69
2022-08-23T05:03:59.160Z,53.69
2022-08-23T05:04:59.521Z,53.69
2022-08-23T05:05:59.228Z,53.69
2022-08-23T05:06:59.261Z,53.69
2022-08-23T05:07:59.540Z,53.69
2022-08-23T05:08:59.329Z,53.79
2022-08-23T05:09:59.367Z,53.79
2022-08-23T05:10:59.703Z,53.69
2022-08-23T05:11:59.436Z,53.79
2022-08-23T05:12:59.483Z,53.69
2022-08-23T05:13:59.519Z,53.69
2022-08-23T05:14:59.550Z,53.79
2022-08-23T05:15:59.579Z,53.79
2022-08-23T05:16:59.860Z,53.69
2022-08-23T05:17:59.721Z,53.79
2022-08-23T05:18:59.679Z,53.79
2022-08-23T05:19:59.717Z,53.79
2022-08-23T05:20:59.749Z,53.79
2022-08-23T05:21:59.786Z,53.69
2022-08-23T05:22:59.826Z,53.59
2022-08-23T05:24:00.123Z,53.79
2022-08-23T05:24:59.894Z,53.69
2022-08-23T05:25:59.929Z,53.79
2022-08-23T05:26:59.973Z,53.69
2022-08-23T05:28:00.151Z,53.69
2022-08-23T05:29:00.038Z,53.69
2022-08-23T05:30:00.067Z,53.79
2022-08-23T05:31:00.351Z,53.69
2022-08-23T05:32:00.140Z,53.69
2022-08-23T05:33:00.169Z,53.69
2022-08-23T05:34:00.211Z,53.79
2022-08-23T05:35:00.246Z,53.69
2022-08-23T05:36:00.276Z,53.40
2022-08-23T05:37:00.320Z,53.40
2022-08-23T05:38:00.659Z,53.30
2022-08-23T05:39:00.389Z,53.59
2022-08-23T05:40:00.465Z,53.30
2022-08-23T05:41:00.451Z,53.30
2022-08-23T05:42:00.484Z,53.40
2022-08-23T05:43:00.526Z,53.40
2022-08-23T05:44:00.854Z,53.50
2022-08-23T05:45:00.598Z,53.40
2022-08-23T05:46:00.625Z,53.69
2022-08-23T05:47:00.663Z,53.40
2022-08-23T05:48:00.799Z,53.40
2022-08-23T05:49:00.735Z,53.30
2022-08-23T05:50:00.770Z,53.50
2022-08-23T05:51:01.058Z,53.40
2022-08-23T05:52:00.839Z,53.59
2022-08-23T05:53:00.873Z,53.50
2022-08-23T05:54:00.919Z,53.40
2022-08-23T05:55:00.942Z,53.59
2022-08-23T05:56:00.981Z,53.59
2022-08-23T05:57:01.018Z,53.59
2022-08-23T05:58:01.559Z,53.69
2022-08-23T05:59:01.100Z,53.59
2022-08-23T06:00:01.119Z,53.59
2022-08-23T06:01:01.175Z,53.50
2022-08-23T06:02:01.191Z,53.50
2022-08-23T06:03:01.227Z,53.69
2022-08-23T06:04:01.259Z,53.69
2022-08-23T06:05:01.598Z,53.59
2022-08-23T06:06:01.331Z,53.69
2022-08-23T06:07:01.368Z,53.59
2022-08-23T06:08:01.499Z,53.69
2022-08-23T06:09:01.435Z,53.69
2022-08-23T06:10:01.474Z,53.50
2022-08-23T06:11:01.510Z,53.50
2022-08-23T06:12:01.538Z,53.50
2022-08-23T06:13:01.579Z,53.59
2022-08-23T06:14:01.700Z,53.50
2022-08-23T06:15:01.645Z,53.69
2022-08-23T06:16:14.149Z,53.69
2022-08-23T06:17:01.714Z,53.50
2022-08-23T06:18:02.224Z,53.69
2022-08-23T06:19:01.789Z,53.69
2022-08-23T06:20:01.867Z,53.69
2022-08-23T06:21:01.857Z,53.69
2022-08-23T06:22:01.898Z,53.69
2022-08-23T06:23:01.924Z,53.69
2022-08-23T06:24:02.210Z,53.89
2022-08-23T06:25:02.001Z,53.69
2022-08-23T06:26:02.030Z,53.89
2022-08-23T06:27:02.072Z,53.69
2022-08-23T06:28:02.334Z,53.89
2022-08-23T06:29:02.178Z,53.79
2022-08-23T06:30:02.432Z,53.30
2022-08-23T06:31:02.238Z,53.30
2022-08-23T06:32:02.246Z,53.30
2022-08-23T06:33:02.278Z,53.20
2022-08-23T06:34:02.361Z,53.20
2022-08-23T06:35:27.812Z,53.20
2022-08-23T06:36:02.389Z,53.30
2022-08-23T06:37:02.718Z,53.20
2022-08-23T06:38:02.782Z,53.11
2022-08-23T06:39:02.492Z,53.40
2022-08-23T06:40:02.592Z,53.11
2022-08-23T06:41:02.565Z,53.11
2022-08-23T06:42:05.458Z,53.01
2022-08-23T06:43:02.637Z,52.92
2022-08-23T06:44:02.917Z,52.92
2022-08-23T06:45:02.720Z,52.92
2022-08-23T06:46:02.740Z,53.20
2022-08-23T06:47:02.846Z,53.20
2022-08-23T06:48:03.091Z,53.30
2022-08-23T06:49:02.844Z,52.92
2022-08-23T06:50:02.890Z,53.20
2022-08-23T06:51:03.217Z,52.92
2022-08-23T06:52:02.955Z,52.94
2022-08-23T06:53:06.922Z,52.92
2022-08-23T06:54:03.533Z,53.11
2022-08-23T06:55:03.055Z,53.20
2022-08-23T06:56:03.095Z,53.20
2022-08-23T06:57:03.126Z,53.59
2022-08-23T06:58:03.411Z,53.11
2022-08-23T06:59:03.204Z,53.23
2022-08-23T07:00:03.233Z,53.20
2022-08-23T07:01:03.295Z,53.20
2022-08-23T07:02:03.414Z,53.04
2022-08-23T07:03:03.675Z,52.84
2022-08-23T07:04:03.376Z,53.04
2022-08-23T07:05:03.715Z,52.84
2022-08-23T07:06:03.443Z,52.94
2022-08-23T07:07:05.278Z,53.23
2022-08-23T07:08:03.520Z,52.84
2022-08-23T07:09:03.555Z,53.01
2022-08-23T07:10:03.592Z,53.23
2022-08-23T07:11:03.626Z,53.23
2022-08-23T07:12:04.010Z,52.94
2022-08-23T07:13:03.696Z,53.04
2022-08-23T07:14:03.732Z,53.11
2022-08-23T07:15:03.775Z,53.23
2022-08-23T07:16:03.949Z,53.14
2022-08-23T07:17:03.839Z,53.33
2022-08-23T07:18:03.878Z,53.23
2022-08-23T07:19:04.211Z,53.52
2022-08-23T07:20:03.973Z,52.94
2022-08-23T07:21:03.983Z,53.33
2022-08-23T07:22:04.036Z,53.14
2022-08-23T07:23:04.050Z,53.14
2022-08-23T07:24:04.084Z,53.23
2022-08-23T07:25:04.140Z,53.33
2022-08-23T07:26:04.404Z,53.14
2022-08-23T07:27:04.218Z,53.04
2022-08-23T07:28:05.746Z,53.62
2022-08-23T07:29:04.264Z,53.52
2022-08-23T07:30:04.297Z,53.52
2022-08-23T07:31:04.339Z,53.52
2022-08-23T07:32:04.426Z,53.23
2022-08-23T07:33:04.665Z,52.75
2022-08-23T07:34:04.443Z,53.62
2022-08-23T07:35:04.478Z,52.94
2022-08-23T07:36:04.670Z,53.23
2022-08-23T07:37:04.603Z,53.23
2022-08-23T07:38:04.584Z,53.33
2022-08-23T07:39:04.622Z,53.14
2022-08-23T07:40:04.993Z,53.42
2022-08-23T07:41:04.690Z,53.33
2022-08-23T07:42:23.128Z,53.23
2022-08-23T07:43:04.771Z,53.23
2022-08-23T07:44:04.796Z,53.14
2022-08-23T07:45:04.841Z,53.23
2022-08-23T07:46:05.043Z,53.14
2022-08-23T07:47:05.213Z,53.23
2022-08-23T07:48:04.988Z,53.04
2022-08-23T07:49:04.979Z,53.23
2022-08-23T07:50:05.023Z,52.75
2022-08-23T07:51:05.054Z,52.55
2022-08-23T07:52:05.081Z,52.84
2022-08-23T07:53:05.226Z,52.84
2022-08-23T07:54:05.159Z,52.84
2022-08-23T07:55:05.213Z,52.94
2022-08-23T07:56:05.494Z,52.94
2022-08-23T07:57:05.258Z,52.94
2022-08-23T07:58:05.295Z,52.84
2022-08-23T07:59:05.335Z,52.94
2022-08-23T08:00:05.669Z,53.33
2022-08-23T08:01:05.412Z,52.94
2022-08-23T08:02:05.563Z,52.84
2022-08-23T08:03:05.651Z,52.84
2022-08-23T08:04:05.522Z,52.84
2022-08-23T08:05:05.550Z,52.84
2022-08-23T08:06:05.582Z,52.94
2022-08-23T08:07:18.710Z,52.94
2022-08-23T08:08:05.651Z,52.94
2022-08-23T08:09:05.690Z,52.65
2022-08-23T08:10:05.723Z,52.55
2022-08-23T08:11:05.766Z,52.94
2022-08-23T08:12:06.103Z,52.65
2022-08-23T08:13:05.840Z,52.84
2022-08-23T08:14:05.871Z,52.65
2022-08-23T08:15:05.909Z,52.94
2022-08-23T08:16:05.990Z,52.55
2022-08-23T08:17:05.982Z,52.55
2022-08-23T08:18:06.009Z,52.65
2022-08-23T08:19:07.834Z,52.58
2022-08-23T08:20:06.081Z,52.67
2022-08-23T08:21:06.124Z,52.65
2022-08-23T08:22:06.152Z,52.87
2022-08-23T08:23:06.201Z,52.84
2022-08-23T08:24:06.227Z,52.94
2022-08-23T08:25:06.265Z,52.97
2022-08-23T08:26:06.604Z,52.67
2022-08-23T08:27:06.333Z,52.67
2022-08-23T08:28:06.365Z,52.77
2022-08-23T08:29:06.409Z,52.67
2022-08-23T08:30:06.456Z,52.58
2022-08-23T08:31:06.497Z,52.58
2022-08-23T08:32:06.511Z,52.67
2022-08-23T08:33:06.800Z,52.77
2022-08-23T08:34:06.582Z,52.67
2022-08-23T08:35:06.625Z,52.58
2022-08-23T08:36:06.654Z,52.58
2022-08-23T08:37:06.689Z,52.58
2022-08-23T08:38:06.741Z,52.58
2022-08-23T08:39:06.766Z,52.87
2022-08-23T08:40:07.142Z,52.77
2022-08-23T08:41:06.836Z,52.67
2022-08-23T08:42:06.877Z,52.67
2022-08-23T08:43:06.907Z,53.06
2022-08-23T08:44:06.938Z,52.28
2022-08-23T08:45:06.978Z,52.67
2022-08-23T08:46:07.081Z,51.90
2022-08-23T08:47:07.301Z,52.19
2022-08-23T08:48:11.389Z,51.70
2022-08-23T08:49:07.123Z,51.61
2022-08-23T08:50:07.163Z,51.80
2022-08-23T08:51:07.199Z,51.87
2022-08-23T08:52:07.228Z,52.09
2022-08-23T08:53:07.265Z,51.70
2022-08-23T08:54:07.300Z,52.87
2022-08-23T08:55:07.341Z,52.77
2022-08-23T08:56:07.375Z,52.48
2022-08-23T08:57:07.407Z,52.38
2022-08-23T08:58:07.447Z,52.38
2022-08-23T08:59:07.478Z,52.87
2022-08-23T09:00:07.827Z,52.28
2022-08-23T09:01:07.550Z,52.58
2022-08-23T09:02:07.647Z,52.67
2022-08-23T09:03:07.668Z,52.48
2022-08-23T09:04:07.661Z,52.48
2022-08-23T09:05:07.697Z,52.77
2022-08-23T09:06:07.733Z,52.48
2022-08-23T09:07:08.019Z,52.58
2022-08-23T09:08:07.805Z,52.67
2022-08-23T09:09:07.844Z,52.19
2022-08-23T09:10:07.880Z,52.48
2022-08-23T09:11:07.988Z,52.58
2022-08-23T09:12:07.956Z,52.38
2022-08-23T09:13:07.984Z,52.77
2022-08-23T09:14:08.268Z,52.48
2022-08-23T09:15:08.057Z,52.58
2022-08-23T09:16:08.167Z,51.80
2022-08-23T09:17:08.124Z,52.58
2022-08-23T09:18:08.165Z,52.48
2022-08-23T09:19:08.196Z,52.48
2022-08-23T09:20:08.535Z,52.67
2022-08-23T09:21:08.271Z,52.58
2022-08-23T09:22:08.309Z,52.67
2022-08-23T09:23:08.342Z,52.58
2022-08-23T09:24:08.380Z,52.67
2022-08-23T09:25:10.370Z,52.67
2022-08-23T09:26:08.451Z,52.67
2022-08-23T09:27:08.486Z,52.67
2022-08-23T09:28:08.531Z,52.38
2022-08-23T09:29:08.559Z,52.58
2022-08-23T09:30:08.598Z,52.67
2022-08-23T09:31:08.691Z,52.48
2022-08-23T09:32:08.965Z,52.67
2022-08-23T09:33:08.703Z,52.67
2022-08-23T09:34:08.742Z,52.67
2022-08-23T09:35:08.778Z,52.38
2022-08-23T09:36:08.813Z,52.58
2022-08-23T09:37:09.838Z,52.38
2022-08-23T09:38:08.889Z,52.67
2022-08-23T09:39:09.168Z,52.67
2022-08-23T09:40:08.983Z,52.38
2022-08-23T09:41:08.991Z,52.50
2022-08-23T09:42:09.030Z,52.38
2022-08-23T09:43:09.070Z,52.67
2022-08-23T09:44:09.101Z,52.58
2022-08-23T09:45:09.134Z,52.38
2022-08-23T09:46:09.511Z,52.67
2022-08-23T09:47:09.246Z,52.40
2022-08-23T09:48:09.258Z,52.38
2022-08-23T09:49:09.279Z,52.67
2022-08-23T09:50:09.318Z,52.48
2022-08-23T09:51:09.349Z,52.38
2022-08-23T09:52:09.390Z,52.22
2022-08-23T09:53:09.683Z,52.48
2022-08-23T09:54:09.463Z,52.40
2022-08-23T09:55:09.509Z,52.70
2022-08-23T09:56:09.537Z,52.60
2022-08-23T09:57:09.575Z,52.58
2022-08-23T09:58:09.608Z,52.40
2022-08-23T09:59:09.641Z,52.67
2022-08-23T10:00:09.979Z,52.50
2022-08-23T10:01:09.765Z,52.19
2022-08-23T10:02:09.804Z,52.40
2022-08-23T10:03:09.793Z,52.50
2022-08-23T10:04:09.827Z,52.38
2022-08-23T10:05:10.109Z,52.50
2022-08-23T10:06:09.897Z,52.70
2022-08-23T10:07:10.184Z,52.22
2022-08-23T10:08:10.922Z,52.70
2022-08-23T10:09:10.004Z,52.67
2022-08-23T10:10:10.039Z,51.92
2022-08-23T10:11:10.073Z,52.60
2022-08-23T10:12:10.111Z,52.12
2022-08-23T10:13:10.147Z,51.92
2022-08-23T10:14:10.437Z,52.60
2022-08-23T10:15:10.221Z,52.70
2022-08-23T10:16:10.365Z,52.31
2022-08-23T10:17:10.296Z,52.80
2022-08-23T10:18:10.335Z,52.80
2022-08-23T10:19:10.429Z,52.60
2022-08-23T10:20:10.408Z,52.60
2022-08-23T10:21:10.686Z,52.70
2022-08-23T10:22:10.484Z,52.40
2022-08-23T10:23:10.514Z,52.22
2022-08-23T10:24:10.550Z,52.40
2022-08-23T10:25:10.583Z,52.02
2022-08-23T10:26:10.626Z,52.02
2022-08-23T10:27:10.658Z,52.22
2022-08-23T10:28:10.946Z,52.40
2022-08-23T10:29:10.729Z,51.92
2022-08-23T10:30:10.765Z,52.40
2022-08-23T10:31:10.853Z,51.82
2022-08-23T10:32:10.840Z,52.02
2022-08-23T10:33:10.873Z,52.12
2022-08-23T10:34:10.908Z,52.02
2022-08-23T10:35:11.246Z,51.82
2022-08-23T10:36:10.981Z,51.82
2022-08-23T10:37:11.021Z,51.82
2022-08-23T10:38:11.057Z,52.02
2022-08-23T10:39:11.090Z,52.02
2022-08-23T10:40:11.177Z,51.73
2022-08-23T10:41:11.168Z,52.12
2022-08-23T10:42:11.449Z,51.53
2022-08-23T10:43:11.231Z,51.92
2022-08-23T10:44:11.272Z,51.82
2022-08-23T10:45:11.318Z,51.73
2022-08-23T10:46:11.410Z,51.73
2022-08-23T10:47:11.384Z,52.02
2022-08-23T10:48:11.420Z,52.12
2022-08-23T10:49:11.754Z,51.73
2022-08-23T10:50:11.545Z,51.82
2022-08-23T10:51:11.524Z,51.82
2022-08-23T10:52:11.567Z,51.53
2022-08-23T10:53:11.597Z,51.63
2022-08-23T10:54:11.639Z,50.97
2022-08-23T10:55:12.116Z,51.53
2022-08-23T10:56:11.708Z,51.53
2022-08-23T10:57:11.742Z,51.63
2022-08-23T10:58:11.785Z,51.65
2022-08-23T10:59:11.816Z,51.63
2022-08-23T11:00:11.927Z,51.95
2022-08-23T11:01:12.228Z,51.75
2022-08-23T11:02:12.023Z,51.75
2022-08-23T11:03:11.966Z,51.65
2022-08-23T11:04:11.999Z,51.65
2022-08-23T11:05:12.070Z,51.46
2022-08-23T11:06:12.086Z,51.46
2022-08-23T11:07:12.408Z,51.82
2022-08-23T11:08:12.152Z,51.65
2022-08-23T11:09:12.183Z,51.56
2022-08-23T11:10:16.829Z,51.56
2022-08-23T11:11:12.253Z,50.87
2022-08-23T11:12:12.294Z,51.65
2022-08-23T11:13:12.325Z,51.17
2022-08-23T11:14:12.365Z,50.97
2022-08-23T11:15:12.401Z,51.17
2022-08-23T11:16:12.481Z,51.46
2022-08-23T11:17:12.472Z,50.97
2022-08-23T11:18:12.514Z,51.26
2022-08-23T11:19:12.552Z,51.46
2022-08-23T11:20:12.887Z,51.26
2022-08-23T11:21:12.625Z,50.87
2022-08-23T11:22:12.658Z,51.07
2022-08-23T11:23:12.693Z,50.97
2022-08-23T11:24:12.731Z,51.07
2022-08-23T11:25:12.770Z,51.46
2022-08-23T11:26:12.801Z,51.07
2022-08-23T11:27:13.141Z,51.07
2022-08-23T11:28:12.876Z,51.17
2022-08-23T11:29:12.913Z,50.97
2022-08-23T11:30:12.953Z,50.97
2022-08-23T11:31:13.020Z,51.26
2022-08-23T11:32:13.235Z,50.97
2022-08-23T11:33:13.059Z,50.97
2022-08-23T11:34:13.402Z,51.26
2022-08-23T11:35:13.136Z,50.97
2022-08-23T11:36:13.170Z,51.36
2022-08-23T11:37:13.201Z,50.97
2022-08-23T11:38:13.244Z,50.97
2022-08-23T11:39:13.280Z,51.07
2022-08-23T11:40:18.006Z,50.97
2022-08-23T11:41:13.653Z,51.07
2022-08-23T11:42:13.393Z,51.17
2022-08-23T11:43:13.432Z,51.46
2022-08-23T11:44:13.469Z,51.26
2022-08-23T11:45:13.496Z,50.97
2022-08-23T11:46:13.664Z,50.97
2022-08-23T11:47:13.574Z,51.17
2022-08-23T11:48:13.868Z,51.17
2022-08-23T11:49:13.649Z,50.87
2022-08-23T11:50:13.682Z,51.07
2022-08-23T11:51:13.718Z,50.97
2022-08-23T11:52:13.758Z,50.97
2022-08-23T11:53:13.791Z,50.87
2022-08-23T11:54:14.514Z,50.68
2022-08-23T11:55:14.166Z,50.97
2022-08-23T11:56:13.904Z,51.07
2022-08-23T11:57:13.934Z,51.46
2022-08-23T11:58:13.971Z,50.87
2022-08-23T11:59:14.010Z,51.17
2022-08-23T12:00:14.046Z,50.58
2022-08-23T12:01:14.085Z,51.26
2022-08-23T12:02:16.098Z,51.07
2022-08-23T12:03:14.323Z,51.17
2022-08-23T12:04:14.195Z,51.26
2022-08-23T12:05:14.226Z,50.58
2022-08-23T12:06:14.274Z,50.78
2022-08-23T12:07:14.308Z,50.58
2022-08-23T12:08:14.343Z,51.17
2022-08-23T12:09:14.689Z,50.97
2022-08-23T12:10:14.417Z,50.80
2022-08-23T12:11:14.447Z,50.78
2022-08-23T12:12:14.495Z,50.99
2022-08-23T12:13:14.710Z,50.80
2022-08-23T12:14:14.563Z,50.80
2022-08-23T12:15:14.892Z,50.80
2022-08-23T12:16:16.414Z,50.70
2022-08-23T12:17:14.671Z,50.90
2022-08-23T12:18:14.709Z,50.90
2022-08-23T12:19:14.744Z,50.60
2022-08-23T12:20:16.933Z,50.70
2022-08-23T12:21:15.069Z,50.70
2022-08-23T12:22:14.864Z,50.80
2022-08-23T12:23:14.892Z,50.70
2022-08-23T12:24:14.940Z,50.60
2022-08-23T12:25:14.966Z,50.70
2022-08-23T12:26:15.001Z,50.80
2022-08-23T12:27:15.288Z,50.70
2022-08-23T12:28:15.078Z,50.60
2022-08-23T12:29:15.111Z,50.31
2022-08-23T12:30:15.149Z,50.41
2022-08-23T12:31:15.272Z,50.60
2022-08-23T12:33:49.909Z,50.60
2022-08-23T12:34:49.951Z,50.51
2022-08-23T12:35:49.989Z,50.60
2022-08-23T12:36:50.258Z,50.70
2022-08-23T12:37:50.063Z,50.80
2022-08-23T12:38:50.099Z,50.60
2022-08-23T12:39:50.418Z,50.60
2022-08-23T12:40:50.174Z,50.60
2022-08-23T12:41:50.207Z,50.41
2022-08-23T12:42:50.244Z,50.60
2022-08-23T12:43:50.284Z,50.60
2022-08-23T12:44:50.323Z,50.51
2022-08-23T12:45:50.652Z,50.51
2022-08-23T12:46:50.512Z,50.73
2022-08-23T12:47:50.432Z,50.80
2022-08-23T12:48:50.464Z,50.80
2022-08-23T12:49:50.507Z,50.60
2022-08-23T12:50:50.545Z,50.92
2022-08-23T12:51:50.579Z,50.63
2022-08-23T12:52:50.865Z,50.53
2022-08-23T12:53:50.654Z,50.04
2022-08-23T12:54:50.689Z,50.92
2022-08-23T12:55:50.731Z,50.82